Time;durP1;ratioP1;P1;durP2;ratioP2;P2;SDS_P1;SDS_P2;PMS_P1;PMS_P2;Temp;Humidity;BMP_temperature;BMP_pressure;BME280_temperature;BME280_humidity;BME280_pressure;Samples;Min_cycle;Max_cycle;Signal;HPM_P1;HPM_P2
2022/03/21 00:00:53;;;;;;;21.00;9.38;;;;;;;;;;5012622;28;20079;-87
2022/03/21 00:03:20;;;;;;;20.85;7.68;;;;;;;;;;5012604;28;20076;-93
2022/03/21 00:05:46;;;;;;;18.50;8.02;;;;;;;;;;5012104;28;20064;-87
2022/03/21 00:08:11;;;;;;;13.80;6.80;;;;;;;;;;5012463;28;20025;-93
2022/03/21 00:10:38;;;;;;;18.40;8.20;;;;;;;;;;5024777;28;20062;-93
2022/03/21 00:13:04;;;;;;;31.07;11.67;;;;;;;;;;5045797;28;20489;-93
2022/03/21 00:15:31;;;;;;;21.58;8.48;;;;;;;;;;5012161;28;20034;-93
2022/03/21 00:17:56;;;;;;;17.88;7.78;;;;;;;;;;5012191;28;20018;-93
2022/03/21 00:20:22;;;;;;;20.87;9.47;;;;;;;;;;5012965;28;20379;-87
2022/03/21 00:22:47;;;;;;;21.48;8.75;;;;;;;;;;5012352;28;20119;-86
2022/03/21 00:25:12;;;;;;;17.37;8.00;;;;;;;;;;5012926;28;20014;-91
2022/03/21 00:27:38;;;;;;;19.07;8.90;;;;;;;;;;5011696;28;20397;-94
2022/03/21 00:30:09;;;;;;;19.30;8.60;;;;;;;;;;5013306;28;20026;-92
2022/03/21 00:32:34;;;;;;;21.77;8.27;;;;;;;;;;5011785;28;20042;-86
2022/03/21 00:34:59;;;;;;;18.77;8.55;;;;;;;;;;5011892;28;20186;-87
2022/03/21 00:37:26;;;;;;;20.08;8.82;;;;;;;;;;5012018;28;20092;-92
2022/03/21 00:39:51;;;;;;;21.20;9.70;;;;;;;;;;5011402;28;20691;-92
2022/03/21 00:42:16;;;;;;;25.42;10.88;;;;;;;;;;5011866;28;20022;-91
2022/03/21 00:44:42;;;;;;;22.30;9.80;;;;;;;;;;5011830;28;20017;-92
2022/03/21 00:47:07;;;;;;;24.50;10.07;;;;;;;;;;5011786;28;20018;-93
2022/03/21 00:49:32;;;;;;;18.48;9.07;;;;;;;;;;5011933;28;20018;-93
2022/03/21 00:51:57;;;;;;;18.15;6.93;;;;;;;;;;5012090;28;20071;-93
2022/03/21 00:54:23;;;;;;;16.15;6.07;;;;;;;;;;5011913;28;20079;-87
2022/03/21 00:56:48;;;;;;;17.73;8.48;;;;;;;;;;5011610;28;20038;-86
2022/03/21 00:59:13;;;;;;;16.70;7.60;;;;;;;;;;5011987;28;20014;-92
2022/03/21 01:01:38;;;;;;;12.55;5.85;;;;;;;;;;5012005;28;20138;-92
2022/03/21 01:04:03;;;;;;;16.35;6.45;;;;;;;;;;5011939;28;20100;-92
2022/03/21 01:06:29;;;;;;;15.25;6.65;;;;;;;;;;5011499;28;20330;-93
2022/03/21 01:08:54;;;;;;;13.38;6.18;;;;;;;;;;5011371;28;20022;-93
2022/03/21 01:11:19;;;;;;;18.17;6.78;;;;;;;;;;5011604;28;20493;-87
2022/03/21 01:13:44;;;;;;;12.75;5.85;;;;;;;;;;5014832;28;20022;-85
2022/03/21 01:16:10;;;;;;;17.60;7.05;;;;;;;;;;5015585;28;20038;-93
2022/03/21 01:18:36;;;;;;;14.63;6.68;;;;;;;;;;5015635;28;20021;-91
2022/03/21 01:21:01;;;;;;;14.32;6.57;;;;;;;;;;5015594;28;20116;-93
2022/03/21 01:23:26;;;;;;;15.13;6.90;;;;;;;;;;5015761;28;20057;-92
2022/03/21 01:25:52;;;;;;;14.05;6.30;;;;;;;;;;5015479;28;20025;-92
2022/03/21 01:28:17;;;;;;;15.00;6.43;;;;;;;;;;5017049;28;20018;-93
2022/03/21 01:30:42;;;;;;;13.32;5.55;;;;;;;;;;5016594;28;20438;-93
2022/03/21 01:33:07;;;;;;;14.97;6.17;;;;;;;;;;5015417;28;20030;-94
2022/03/21 01:35:33;;;;;;;14.93;6.57;;;;;;;;;;5015291;28;20390;-93
2022/03/21 01:37:58;;;;;;;16.70;6.47;;;;;;;;;;5014912;28;20018;-93
2022/03/21 01:40:24;;;;;;;15.30;6.65;;;;;;;;;;5015380;28;20160;-87
2022/03/21 01:42:49;;;;;;;17.60;6.93;;;;;;;;;;5015440;28;20080;-92
2022/03/21 01:45:15;;;;;;;16.02;6.10;;;;;;;;;;5015097;28;20474;-91
2022/03/21 01:47:41;;;;;;;16.27;6.13;;;;;;;;;;5015414;28;20446;-91
2022/03/21 01:50:06;;;;;;;17.65;7.45;;;;;;;;;;5015259;28;20033;-91
2022/03/21 01:52:32;;;;;;;13.95;6.63;;;;;;;;;;5015949;28;20121;-89
2022/03/21 01:57:42;;;;;;;15.25;6.90;;;;;;;;;;5015614;28;20132;-92
2022/03/21 02:00:08;;;;;;;14.60;6.20;;;;;;;;;;5016261;28;20522;-92
2022/03/21 02:02:33;;;;;;;15.68;6.35;;;;;;;;;;5014734;28;20479;-94
2022/03/21 02:04:58;;;;;;;12.27;6.05;;;;;;;;;;5015249;28;20022;-93
2022/03/21 02:07:25;;;;;;;14.02;6.25;;;;;;;;;;5015865;28;20097;-93
2022/03/21 02:09:50;;;;;;;14.63;6.23;;;;;;;;;;5014728;28;20028;-93
2022/03/21 02:12:15;;;;;;;16.33;5.90;;;;;;;;;;5015021;28;20026;-93
2022/03/21 02:14:41;;;;;;;14.40;5.13;;;;;;;;;;5014432;28;20034;-93
2022/03/21 02:17:06;;;;;;;14.18;6.28;;;;;;;;;;5014119;28;20030;-92
2022/03/21 02:19:32;;;;;;;14.43;5.53;;;;;;;;;;5014754;28;20037;-86
2022/03/21 02:21:57;;;;;;;13.30;6.30;;;;;;;;;;5014591;28;20109;-94
2022/03/21 02:24:46;;;;;;;14.97;5.57;;;;;;;;;;5015477;28;20018;-92
2022/03/21 02:27:11;;;;;;;13.50;5.63;;;;;;;;;;4994422;28;20030;-92
2022/03/21 02:29:37;;;;;;;14.15;6.15;;;;;;;;;;5014369;28;20036;-86
2022/03/21 02:32:03;;;;;;;14.57;5.83;;;;;;;;;;5014371;28;20050;-92
2022/03/21 02:34:28;;;;;;;13.87;5.70;;;;;;;;;;5014970;28;20048;-87
2022/03/21 02:36:55;;;;;;;11.60;4.70;;;;;;;;;;5015152;28;20112;-88
2022/03/21 02:39:20;;;;;;;12.67;4.97;;;;;;;;;;5013622;28;20034;-94
2022/03/21 02:41:46;;;;;;;14.27;5.30;;;;;;;;;;5014537;28;20036;-86
2022/03/21 02:44:11;;;;;;;13.82;5.43;;;;;;;;;;5015371;28;20116;-91
2022/03/21 02:46:36;;;;;;;12.00;5.30;;;;;;;;;;5013918;28;20109;-93
2022/03/21 02:49:02;;;;;;;13.77;5.75;;;;;;;;;;5013981;28;20048;-87
2022/03/21 02:51:27;;;;;;;14.87;5.13;;;;;;;;;;5015113;28;20018;-92
2022/03/21 02:53:53;;;;;;;13.63;5.57;;;;;;;;;;5013836;28;20528;-86
2022/03/21 02:56:20;;;;;;;13.18;5.97;;;;;;;;;;5013847;28;20582;-87
2022/03/21 02:58:45;;;;;;;11.57;4.93;;;;;;;;;;5014134;28;20156;-93
2022/03/21 03:01:12;;;;;;;16.30;6.57;;;;;;;;;;5013977;28;20064;-90
2022/03/21 03:03:38;;;;;;;16.50;5.47;;;;;;;;;;5013351;28;20069;-86
2022/03/21 03:06:03;;;;;;;12.57;5.10;;;;;;;;;;5013687;28;20442;-92
2022/03/21 03:08:29;;;;;;;12.90;5.47;;;;;;;;;;5013531;28;20627;-93
2022/03/21 03:10:54;;;;;;;15.20;5.97;;;;;;;;;;5013507;28;20073;-88
2022/03/21 03:13:19;;;;;;;12.83;5.20;;;;;;;;;;5013279;28;20120;-93
2022/03/21 03:15:45;;;;;;;11.20;5.75;;;;;;;;;;5013098;28;20056;-86
2022/03/21 03:18:10;;;;;;;14.90;4.93;;;;;;;;;;5013412;28;20022;-93
2022/03/21 03:20:35;;;;;;;13.17;4.87;;;;;;;;;;5014475;28;20021;-93
2022/03/21 03:23:02;;;;;;;12.90;5.10;;;;;;;;;;5013109;28;20386;-87
2022/03/21 03:25:27;;;;;;;13.43;5.43;;;;;;;;;;5013421;28;20022;-86
2022/03/21 03:27:52;;;;;;;13.07;5.50;;;;;;;;;;5013317;28;20083;-88
2022/03/21 03:30:17;;;;;;;13.67;5.77;;;;;;;;;;5013497;28;20036;-93
2022/03/21 03:32:44;;;;;;;10.73;5.30;;;;;;;;;;5013297;28;20022;-93
2022/03/21 03:35:09;;;;;;;13.33;5.27;;;;;;;;;;5012742;28;20467;-93
2022/03/21 03:37:35;;;;;;;15.23;5.83;;;;;;;;;;5013100;28;20025;-90
2022/03/21 03:40:00;;;;;;;15.20;5.33;;;;;;;;;;5013297;28;20018;-93
2022/03/21 03:42:25;;;;;;;13.93;5.17;;;;;;;;;;5013057;28;20107;-86
2022/03/21 03:44:50;;;;;;;10.13;4.63;;;;;;;;;;5013141;28;20410;-93
2022/03/21 03:47:15;;;;;;;11.03;4.73;;;;;;;;;;5013206;28;20402;-89
2022/03/21 03:49:41;;;;;;;11.00;4.67;;;;;;;;;;5013693;28;20022;-93
2022/03/21 03:52:06;;;;;;;11.38;4.57;;;;;;;;;;5012749;28;20364;-94
2022/03/21 03:54:31;;;;;;;12.63;5.23;;;;;;;;;;5012610;28;20438;-93
2022/03/21 03:56:56;;;;;;;13.23;5.17;;;;;;;;;;5012606;28;20050;-92
2022/03/21 03:59:22;;;;;;;10.93;5.73;;;;;;;;;;5013917;28;20026;-93
2022/03/21 04:01:47;;;;;;;12.40;5.07;;;;;;;;;;5012959;28;20386;-90
2022/03/21 04:04:12;;;;;;;9.18;4.30;;;;;;;;;;5013758;28;20462;-88
2022/03/21 04:06:37;;;;;;;13.27;5.40;;;;;;;;;;5012622;28;20018;-93
2022/03/21 04:09:02;;;;;;;14.43;5.27;;;;;;;;;;5012206;28;20049;-87
2022/03/21 04:11:28;;;;;;;11.37;5.13;;;;;;;;;;5012547;28;20026;-86
2022/03/21 04:13:53;;;;;;;10.53;4.63;;;;;;;;;;5012077;28;20014;-87
2022/03/21 04:16:19;;;;;;;12.47;4.90;;;;;;;;;;5012440;28;20107;-93
2022/03/21 04:18:44;;;;;;;13.73;5.10;;;;;;;;;;5012588;28;20080;-93
2022/03/21 04:21:09;;;;;;;13.13;5.67;;;;;;;;;;5012320;28;20109;-92
2022/03/21 04:23:34;;;;;;;12.47;4.93;;;;;;;;;;5012346;28;20089;-87
2022/03/21 04:26:00;;;;;;;13.43;4.90;;;;;;;;;;5012793;28;20098;-92
2022/03/21 04:28:25;;;;;;;13.70;5.07;;;;;;;;;;5012155;28;20021;-92
2022/03/21 04:30:50;;;;;;;11.47;5.00;;;;;;;;;;5012453;28;20108;-86
2022/03/21 04:33:15;;;;;;;18.17;6.40;;;;;;;;;;5012289;28;20026;-90
2022/03/21 04:35:42;;;;;;;15.03;5.10;;;;;;;;;;5011972;28;20032;-89
2022/03/21 04:38:13;;;;;;;12.93;5.27;;;;;;;;;;5011783;28;20466;-94
2022/03/21 04:40:45;;;;;;;14.18;5.13;;;;;;;;;;5011935;28;20014;-87
2022/03/21 04:43:11;;;;;;;15.70;5.57;;;;;;;;;;5011830;28;20079;-93
2022/03/21 04:45:37;;;;;;;15.87;5.27;;;;;;;;;;5015223;28;20017;-92
2022/03/21 04:48:03;;;;;;;16.03;5.67;;;;;;;;;;5033551;28;20033;-93
2022/03/21 04:50:29;;;;;;;14.67;5.60;;;;;;;;;;5035048;28;20075;-93
2022/03/21 04:52:54;;;;;;;16.13;5.57;;;;;;;;;;5015861;28;20025;-93
2022/03/21 04:55:19;;;;;;;14.67;5.67;;;;;;;;;;5016306;28;20477;-92
2022/03/21 04:57:45;;;;;;;14.70;6.63;;;;;;;;;;5023243;28;20036;-88
2022/03/21 05:00:10;;;;;;;14.83;6.30;;;;;;;;;;5015777;28;20018;-93
2022/03/21 05:02:35;;;;;;;14.73;5.63;;;;;;;;;;5016143;28;20037;-92
2022/03/21 05:05:02;;;;;;;14.60;5.70;;;;;;;;;;5016451;28;20398;-93
2022/03/21 05:07:27;;;;;;;13.33;5.70;;;;;;;;;;5016455;28;20036;-92
2022/03/21 05:09:52;;;;;;;14.53;6.03;;;;;;;;;;5016587;28;20018;-92
2022/03/21 05:12:17;;;;;;;15.37;6.30;;;;;;;;;;5015499;28;20479;-92
2022/03/21 05:14:43;;;;;;;15.43;6.63;;;;;;;;;;5015888;28;20148;-93
2022/03/21 05:17:10;;;;;;;13.77;6.57;;;;;;;;;;5015786;28;20041;-93
2022/03/21 05:19:36;;;;;;;18.37;6.60;;;;;;;;;;5014868;28;20367;-91
2022/03/21 05:22:02;;;;;;;31.37;10.33;;;;;;;;;;5015358;28;20036;-94
2022/03/21 05:32:39;;;;;;;24.48;9.57;;;;;;;;;;5016704;28;20455;-91
2022/03/21 05:37:48;;;;;;;33.47;14.10;;;;;;;;;;5015160;28;20064;-93
2022/03/21 05:40:34;;;;;;;14.33;6.70;;;;;;;;;;5014284;28;20386;-93
2022/03/21 05:42:59;;;;;;;15.57;6.60;;;;;;;;;;5019912;28;20026;-93
2022/03/21 05:45:24;;;;;;;38.50;20.47;;;;;;;;;;5014025;28;20025;-94
2022/03/21 05:50:34;;;;;;;34.33;19.87;;;;;;;;;;5028870;28;20033;-93
2022/03/21 05:53:00;;;;;;;20.03;9.23;;;;;;;;;;5033217;28;20025;-93
2022/03/21 05:55:25;;;;;;;18.83;7.67;;;;;;;;;;5047297;28;20072;-93
2022/03/21 05:57:50;;;;;;;29.40;13.50;;;;;;;;;;5014454;28;20034;-93
2022/03/21 06:00:21;;;;;;;21.03;7.93;;;;;;;;;;5014738;28;20022;-91
2022/03/21 06:02:51;;;;;;;16.90;6.73;;;;;;;;;;5032037;28;20386;-91
2022/03/21 06:05:16;;;;;;;21.70;10.03;;;;;;;;;;5015223;28;20026;-93
2022/03/21 06:07:41;;;;;;;12.60;6.50;;;;;;;;;;5017014;28;20493;-92
2022/03/21 06:10:07;;;;;;;17.50;6.50;;;;;;;;;;5041053;28;20026;-92
2022/03/21 06:12:32;;;;;;;17.57;7.70;;;;;;;;;;5022267;28;20025;-87
2022/03/21 06:14:57;;;;;;;19.60;7.03;;;;;;;;;;5034483;28;20029;-92
2022/03/21 06:17:27;;;;;;;18.43;8.27;;;;;;;;;;5026134;28;20014;-85
2022/03/21 06:20:12;;;;;;;21.50;8.63;;;;;;;;;;5032496;28;20021;-86
2022/03/21 06:22:38;;;;;;;23.10;8.13;;;;;;;;;;5031956;28;20013;-86
2022/03/21 06:25:14;;;;;;;21.10;10.70;;;;;;;;;;5031924;28;20017;-86
2022/03/21 06:27:39;;;;;;;21.80;7.70;;;;;;;;;;5033640;28;20053;-87
2022/03/21 06:30:05;;;;;;;21.97;7.83;;;;;;;;;;5032390;28;20006;-85
2022/03/21 06:32:34;;;;;;;31.23;16.57;;;;;;;;;;5034836;28;20030;-93
2022/03/21 06:35:03;;;;;;;20.87;8.73;;;;;;;;;;5031603;28;20002;-87
2022/03/21 06:37:50;;;;;;;23.03;8.37;;;;;;;;;;5035383;28;20018;-86
2022/03/21 06:40:18;;;;;;;26.13;11.97;;;;;;;;;;5032051;28;20018;-86
2022/03/21 06:42:44;;;;;;;89.10;42.70;;;;;;;;;;5030284;28;20002;-87
2022/03/21 06:45:18;;;;;;;56.03;30.70;;;;;;;;;;5034322;28;20013;-87
2022/03/21 06:47:43;;;;;;;49.08;17.17;;;;;;;;;;5035013;28;20030;-90
2022/03/21 06:50:12;;;;;;;21.83;9.07;;;;;;;;;;5033300;28;20012;-93
2022/03/21 06:52:45;;;;;;;21.33;9.77;;;;;;;;;;5034295;28;20036;-87
2022/03/21 06:55:12;;;;;;;21.50;11.17;;;;;;;;;;5033093;28;20006;-90
2022/03/21 06:57:39;;;;;;;21.88;10.13;;;;;;;;;;5036158;28;20064;-93
2022/03/21 07:00:22;;;;;;;25.33;9.75;;;;;;;;;;5034794;28;20034;-85
2022/03/21 07:02:47;;;;;;;23.45;10.20;;;;;;;;;;5034131;28;20056;-86
2022/03/21 07:05:13;;;;;;;26.45;11.90;;;;;;;;;;5036215;28;20006;-88
2022/03/21 07:07:38;;;;;;;23.48;10.25;;;;;;;;;;5035461;28;20017;-87
2022/03/21 07:10:13;;;;;;;24.70;10.90;;;;;;;;;;5037790;28;20025;-89
2022/03/21 07:12:39;;;;;;;26.10;10.73;;;;;;;;;;5035834;28;20026;-94
2022/03/21 07:15:05;;;;;;;31.13;13.50;;;;;;;;;;5033414;28;20010;-85
2022/03/21 07:17:31;;;;;;;42.15;29.15;;;;;;;;;;5034087;28;20034;-87
2022/03/21 07:19:59;;;;;;;40.35;22.63;;;;;;;;;;5033131;28;20032;-86
2022/03/21 07:22:28;;;;;;;44.83;26.83;;;;;;;;;;5034919;28;20010;-87
2022/03/21 07:25:06;;;;;;;46.20;18.35;;;;;;;;;;5035394;28;20041;-85
2022/03/21 07:27:47;;;;;;;32.33;15.07;;;;;;;;;;5032963;28;20010;-85
2022/03/21 07:30:15;;;;;;;30.63;14.18;;;;;;;;;;5033403;28;20012;-85
2022/03/21 07:32:41;;;;;;;28.38;13.85;;;;;;;;;;5032503;28;20044;-86
2022/03/21 07:35:07;;;;;;;35.20;15.65;;;;;;;;;;5032521;28;20002;-85
2022/03/21 07:37:42;;;;;;;33.88;16.52;;;;;;;;;;5031884;28;20014;-85
2022/03/21 07:40:10;;;;;;;35.53;15.13;;;;;;;;;;5034495;28;20006;-85
2022/03/21 07:42:59;;;;;;;27.38;14.05;;;;;;;;;;5034190;28;20486;-85
2022/03/21 07:48:11;;;;;;;27.48;13.70;;;;;;;;;;5035545;28;20033;-87
2022/03/21 07:50:54;;;;;;;24.50;12.20;;;;;;;;;;5025095;28;20486;-95
2022/03/21 07:53:19;;;;;;;23.73;11.52;;;;;;;;;;5014129;28;20052;-94
2022/03/21 07:55:44;;;;;;;21.45;9.95;;;;;;;;;;5013783;28;20033;-87
2022/03/21 07:58:11;;;;;;;25.80;11.43;;;;;;;;;;5014270;28;20058;-92
2022/03/21 08:00:37;;;;;;;20.05;9.75;;;;;;;;;;5012943;28;20026;-94
2022/03/21 08:03:03;;;;;;;26.38;12.07;;;;;;;;;;5013084;28;20356;-89
2022/03/21 08:05:28;;;;;;;24.40;10.25;;;;;;;;;;5013331;28;20024;-93
2022/03/21 08:07:53;;;;;;;23.88;10.52;;;;;;;;;;5012827;28;20108;-93
2022/03/21 08:10:19;;;;;;;22.20;9.88;;;;;;;;;;5012965;28;20367;-93
2022/03/21 08:12:46;;;;;;;24.75;11.88;;;;;;;;;;5012427;28;20441;-94
2022/03/21 08:15:12;;;;;;;22.55;9.43;;;;;;;;;;5012645;28;20030;-94
2022/03/21 08:17:51;;;;;;;22.58;11.43;;;;;;;;;;5013719;28;20038;-92
2022/03/21 08:20:23;;;;;;;24.38;10.57;;;;;;;;;;5012429;28;20079;-87
2022/03/21 08:22:49;;;;;;;21.65;10.70;;;;;;;;;;5012304;28;20022;-93
2022/03/21 08:25:18;;;;;;;21.67;10.73;;;;;;;;;;5012460;28;20033;-93
2022/03/21 08:27:44;;;;;;;21.17;10.10;;;;;;;;;;5012849;28;20478;-94
2022/03/21 08:30:13;;;;;;;23.38;11.32;;;;;;;;;;5012660;28;20018;-86
2022/03/21 08:32:38;;;;;;;26.13;12.38;;;;;;;;;;5012667;28;20049;-94
2022/03/21 08:35:04;;;;;;;24.63;11.75;;;;;;;;;;5012758;28;20493;-94
2022/03/21 08:37:29;;;;;;;24.35;11.60;;;;;;;;;;5012756;28;20045;-94
2022/03/21 08:39:54;;;;;;;25.48;11.45;;;;;;;;;;5012513;28;20471;-93
2022/03/21 08:42:19;;;;;;;23.70;11.48;;;;;;;;;;5012231;28;20030;-95
2022/03/21 08:44:45;;;;;;;23.75;11.70;;;;;;;;;;5012274;28;20451;-94
2022/03/21 08:47:10;;;;;;;27.10;11.68;;;;;;;;;;5012327;28;20021;-94
2022/03/21 08:49:37;;;;;;;24.23;12.65;;;;;;;;;;5012196;28;20463;-86
2022/03/21 08:52:03;;;;;;;23.38;11.65;;;;;;;;;;5012664;28;20463;-93
2022/03/21 08:54:28;;;;;;;24.05;12.02;;;;;;;;;;5012135;28;20099;-94
2022/03/21 08:56:53;;;;;;;23.73;11.75;;;;;;;;;;5012443;28;20471;-94
2022/03/21 08:59:18;;;;;;;23.05;11.10;;;;;;;;;;5012321;28;20112;-95
2022/03/21 09:01:44;;;;;;;24.33;12.13;;;;;;;;;;5014540;28;20104;-94
2022/03/21 09:04:09;;;;;;;26.80;12.65;;;;;;;;;;5024619;28;20018;-94
2022/03/21 09:06:34;;;;;;;30.73;16.58;;;;;;;;;;5028359;28;20022;-93
2022/03/21 09:09:00;;;;;;;23.60;12.10;;;;;;;;;;5028638;28;20018;-91
2022/03/21 09:11:26;;;;;;;25.52;13.63;;;;;;;;;;5028899;28;20431;-95
2022/03/21 09:13:51;;;;;;;20.98;10.65;;;;;;;;;;5028613;28;20018;-92
2022/03/21 09:16:16;;;;;;;21.60;11.02;;;;;;;;;;5028260;28;20032;-87
2022/03/21 09:18:42;;;;;;;25.23;13.43;;;;;;;;;;5012021;28;20026;-93
2022/03/21 09:21:07;;;;;;;25.23;13.77;;;;;;;;;;5028675;28;20018;-94
2022/03/21 09:23:33;;;;;;;24.92;13.00;;;;;;;;;;5028451;28;20409;-95
2022/03/21 09:26:02;;;;;;;26.10;13.80;;;;;;;;;;5028326;28;20385;-94
2022/03/21 09:28:31;;;;;;;32.25;16.75;;;;;;;;;;5012312;28;20485;-95
2022/03/21 09:30:56;;;;;;;25.95;13.57;;;;;;;;;;5012997;28;20467;-95
2022/03/21 09:33:21;;;;;;;23.45;12.20;;;;;;;;;;5029331;28;20029;-94
2022/03/21 09:35:47;;;;;;;21.23;10.68;;;;;;;;;;5032176;28;20018;-93
2022/03/21 09:38:14;;;;;;;24.80;13.85;;;;;;;;;;5031833;28;20036;-86
2022/03/21 09:40:41;;;;;;;51.55;27.60;;;;;;;;;;5031460;28;20071;-95
2022/03/21 09:43:07;;;;;;;32.38;17.17;;;;;;;;;;5031951;28;20021;-94
2022/03/21 09:45:33;;;;;;;24.15;12.10;;;;;;;;;;5031821;28;20077;-93
2022/03/21 09:48:08;;;;;;;31.08;17.85;;;;;;;;;;5031801;28;20021;-93
2022/03/21 09:50:35;;;;;;;25.75;13.30;;;;;;;;;;5031748;28;20467;-92
2022/03/21 09:53:01;;;;;;;27.83;15.13;;;;;;;;;;5031641;28;20216;-94
2022/03/21 09:55:26;;;;;;;25.08;12.05;;;;;;;;;;5031700;28;20471;-95
2022/03/21 09:57:51;;;;;;;29.45;14.90;;;;;;;;;;5031643;28;20068;-91
2022/03/21 10:00:16;;;;;;;20.05;10.15;;;;;;;;;;5031600;28;20041;-88
2022/03/21 10:02:42;;;;;;;26.92;11.93;;;;;;;;;;5031280;28;20045;-94
2022/03/21 10:05:28;;;;;;;26.30;15.13;;;;;;;;;;5014976;28;20022;-94
2022/03/21 10:07:53;;;;;;;28.77;17.20;;;;;;;;;;5031563;28;20099;-86
2022/03/21 10:10:18;;;;;;;28.45;15.93;;;;;;;;;;5014948;28;20025;-94
2022/03/21 10:12:43;;;;;;;22.73;12.23;;;;;;;;;;5031430;28;20068;-94
2022/03/21 10:15:09;;;;;;;26.45;13.23;;;;;;;;;;5031699;28;20038;-93
2022/03/21 10:17:34;;;;;;;22.83;11.25;;;;;;;;;;5031154;28;20040;-94
2022/03/21 10:20:00;;;;;;;20.58;11.65;;;;;;;;;;5031162;28;20018;-94
2022/03/21 10:22:37;;;;;;;23.27;12.43;;;;;;;;;;5031438;28;20014;-94
2022/03/21 10:25:15;;;;;;;20.85;11.00;;;;;;;;;;5015825;28;20018;-86
2022/03/21 10:27:42;;;;;;;18.58;10.20;;;;;;;;;;5031107;28;20058;-94
2022/03/21 10:30:09;;;;;;;18.27;9.85;;;;;;;;;;5031071;28;20021;-88
2022/03/21 10:32:46;;;;;;;19.30;9.93;;;;;;;;;;5031033;28;20032;-94
2022/03/21 10:35:17;;;;;;;20.35;10.93;;;;;;;;;;5031060;28;20546;-95
2022/03/21 10:37:52;;;;;;;21.13;10.95;;;;;;;;;;5030601;28;20062;-87
2022/03/21 10:40:21;;;;;;;20.42;11.02;;;;;;;;;;5030854;28;20026;-94
2022/03/21 10:42:55;;;;;;;19.40;9.93;;;;;;;;;;5031139;28;20018;-95
2022/03/21 10:45:22;;;;;;;20.67;8.90;;;;;;;;;;5029856;28;20524;-94
2022/03/21 10:47:48;;;;;;;20.17;9.60;;;;;;;;;;5030950;28;20076;-93
2022/03/21 10:50:13;;;;;;;21.48;9.80;;;;;;;;;;5030728;28;20466;-94
2022/03/21 10:52:39;;;;;;;20.05;9.52;;;;;;;;;;5030715;28;20049;-94
2022/03/21 10:55:05;;;;;;;23.17;10.45;;;;;;;;;;5031059;28;20137;-86
2022/03/21 10:57:37;;;;;;;17.60;9.10;;;;;;;;;;5030554;28;20588;-94
2022/03/21 11:00:20;;;;;;;19.95;10.48;;;;;;;;;;5014157;28;20018;-91
2022/03/21 11:03:09;;;;;;;24.58;13.50;;;;;;;;;;5030420;28;20036;-94
2022/03/21 11:05:42;;;;;;;22.00;9.95;;;;;;;;;;5030726;28;20018;-94
2022/03/21 11:08:11;;;;;;;22.52;12.65;;;;;;;;;;5030388;28;20048;-86
2022/03/21 11:10:37;;;;;;;25.38;15.52;;;;;;;;;;5031172;28;20018;-94
2022/03/21 11:13:03;;;;;;;26.10;15.60;;;;;;;;;;5031065;28;20025;-88
2022/03/21 11:15:29;;;;;;;25.30;12.90;;;;;;;;;;5030257;28;20026;-88
2022/03/21 11:17:55;;;;;;;17.65;9.05;;;;;;;;;;5029875;28;20105;-88
2022/03/21 11:20:20;;;;;;;16.67;8.50;;;;;;;;;;5029481;28;20466;-88
2022/03/21 11:22:46;;;;;;;18.63;9.52;;;;;;;;;;5029244;28;20018;-88
2022/03/21 11:25:15;;;;;;;15.02;7.85;;;;;;;;;;5029976;28;20049;-88
2022/03/21 11:27:59;;;;;;;20.88;11.05;;;;;;;;;;5029930;28;20022;-88
2022/03/21 11:30:34;;;;;;;13.18;7.18;;;;;;;;;;5029846;28;20076;-88
2022/03/21 11:33:18;;;;;;;13.43;6.57;;;;;;;;;;5029718;28;20026;-88
2022/03/21 11:35:48;;;;;;;15.15;8.02;;;;;;;;;;5029722;28;20079;-88
2022/03/21 11:38:23;;;;;;;14.25;7.25;;;;;;;;;;5029176;28;20497;-87
2022/03/21 11:40:49;;;;;;;13.27;7.22;;;;;;;;;;5029544;28;20033;-88
2022/03/21 11:43:17;;;;;;;13.82;7.47;;;;;;;;;;5028850;28;20026;-88
2022/03/21 11:45:55;;;;;;;13.18;7.38;;;;;;;;;;5029631;28;20022;-88
2022/03/21 11:48:22;;;;;;;13.75;6.78;;;;;;;;;;5029098;28;20037;-88
2022/03/21 11:51:10;;;;;;;18.42;9.30;;;;;;;;;;5029594;28;20421;-96
2022/03/21 11:53:43;;;;;;;13.60;6.20;;;;;;;;;;5029774;28;20483;-86
2022/03/21 11:56:08;;;;;;;13.63;7.53;;;;;;;;;;5029593;28;20022;-96
2022/03/21 11:58:36;;;;;;;17.17;8.00;;;;;;;;;;5032544;28;20079;-96
2022/03/21 12:01:03;;;;;;;17.33;7.70;;;;;;;;;;5030510;28;20018;-89
2022/03/21 12:03:28;;;;;;;12.38;6.28;;;;;;;;;;5013494;28;20048;-96
2022/03/21 12:05:53;;;;;;;14.90;6.95;;;;;;;;;;5029618;28;20072;-96
2022/03/21 12:08:51;;;;;;;14.63;7.50;;;;;;;;;;5028828;28;20064;-95
2022/03/21 12:11:36;;;;;;;15.30;7.50;;;;;;;;;;5028630;28;20471;-96
2022/03/21 12:14:40;;;;;;;16.10;8.77;;;;;;;;;;5029137;28;20582;-95
2022/03/21 12:17:05;;;;;;;15.18;7.68;;;;;;;;;;5032605;28;20084;-96
2022/03/21 12:19:50;;;;;;;15.60;6.97;;;;;;;;;;5029484;28;20030;-96
2022/03/21 12:22:36;;;;;;;16.55;8.25;;;;;;;;;;5029763;28;20041;-96
2022/03/21 12:25:13;;;;;;;27.05;13.40;;;;;;;;;;5030046;28;20022;-87
2022/03/21 12:27:47;;;;;;;40.60;22.15;;;;;;;;;;5029701;28;20045;-87
2022/03/21 12:30:23;;;;;;;21.98;11.35;;;;;;;;;;5014320;28;20029;-95
2022/03/21 12:32:50;;;;;;;26.20;14.38;;;;;;;;;;5029334;28;20021;-96
2022/03/21 12:35:30;;;;;;;14.20;7.07;;;;;;;;;;5029606;28;20374;-96
2022/03/21 12:37:59;;;;;;;13.25;6.82;;;;;;;;;;5029337;28;20408;-96
2022/03/21 12:40:25;;;;;;;13.85;7.43;;;;;;;;;;5014133;28;20029;-96
2022/03/21 12:42:50;;;;;;;14.50;7.03;;;;;;;;;;5012521;28;20018;-96
2022/03/21 12:45:17;;;;;;;11.50;6.63;;;;;;;;;;5013739;28;20014;-96
2022/03/21 12:47:42;;;;;;;17.02;9.52;;;;;;;;;;5029577;28;20030;-96
2022/03/21 12:50:07;;;;;;;18.08;9.40;;;;;;;;;;5029732;28;20378;-96
2022/03/21 12:52:34;;;;;;;19.35;8.13;;;;;;;;;;5012819;28;20382;-96
2022/03/21 12:55:00;;;;;;;15.93;8.57;;;;;;;;;;5029397;28;20483;-96
2022/03/21 12:57:25;;;;;;;18.33;8.55;;;;;;;;;;5029479;28;20030;-96
2022/03/21 12:59:50;;;;;;;17.00;8.63;;;;;;;;;;5029243;28;20017;-96
2022/03/21 13:02:26;;;;;;;13.05;6.78;;;;;;;;;;5028579;28;20028;-95
2022/03/21 13:10:32;;;;;;;13.52;6.53;;;;;;;;;;5017752;28;20028;-96
2022/03/21 13:12:58;;;;;;;14.13;7.13;;;;;;;;;;5033273;28;20020;-96
2022/03/21 13:15:23;;;;;;;17.42;6.97;;;;;;;;;;5034121;28;20026;-96
2022/03/21 13:17:50;;;;;;;13.93;5.93;;;;;;;;;;5017830;28;20081;-96
2022/03/21 13:20:19;;;;;;;14.68;6.65;;;;;;;;;;5032742;28;20022;-96
2022/03/21 13:22:45;;;;;;;11.30;5.93;;;;;;;;;;5033156;28;20025;-96
2022/03/21 13:25:34;;;;;;;12.13;6.45;;;;;;;;;;5018780;28;20021;-96
2022/03/21 13:28:10;;;;;;;13.70;6.40;;;;;;;;;;5033006;28;20038;-96
2022/03/21 13:30:36;;;;;;;15.65;8.45;;;;;;;;;;5016780;28;20485;-96
2022/03/21 13:33:01;;;;;;;11.82;7.13;;;;;;;;;;5035327;28;20029;-95
2022/03/21 13:35:27;;;;;;;14.50;8.27;;;;;;;;;;5017194;28;20057;-95
2022/03/21 13:37:59;;;;;;;14.60;7.70;;;;;;;;;;5032171;28;20057;-96
2022/03/21 13:40:27;;;;;;;15.98;8.90;;;;;;;;;;5032364;28;20072;-96
2022/03/21 13:42:52;;;;;;;17.10;8.23;;;;;;;;;;5032332;28;20041;-87
2022/03/21 13:45:17;;;;;;;14.63;6.97;;;;;;;;;;5031908;28;20018;-96
2022/03/21 13:47:50;;;;;;;17.60;8.32;;;;;;;;;;5047623;28;20026;-94
2022/03/21 13:50:15;;;;;;;11.10;6.72;;;;;;;;;;5031847;28;20025;-95
2022/03/21 13:52:44;;;;;;;8.88;5.45;;;;;;;;;;5029088;28;20079;-95
2022/03/21 13:55:14;;;;;;;12.93;6.30;;;;;;;;;;5015613;28;20018;-96
2022/03/21 13:57:49;;;;;;;9.77;5.95;;;;;;;;;;5012280;28;20022;-96
2022/03/21 14:00:17;;;;;;;13.07;6.22;;;;;;;;;;5030787;28;20032;-95
2022/03/21 14:02:42;;;;;;;9.48;5.30;;;;;;;;;;5035138;28;20017;-95
2022/03/21 14:05:13;;;;;;;10.25;5.25;;;;;;;;;;5035272;28;20037;-96
2022/03/21 14:07:39;;;;;;;11.95;5.10;;;;;;;;;;5034984;28;20024;-96
2022/03/21 14:10:13;;;;;;;11.52;5.05;;;;;;;;;;5035187;28;20021;-95
2022/03/21 14:12:40;;;;;;;10.80;4.40;;;;;;;;;;5035992;28;20025;-95
2022/03/21 14:15:06;;;;;;;8.15;4.22;;;;;;;;;;5035108;28;20100;-87
2022/03/21 14:17:31;;;;;;;9.40;4.10;;;;;;;;;;5035072;28;20065;-95
2022/03/21 14:19:56;;;;;;;8.32;4.53;;;;;;;;;;5034809;28;20021;-96
2022/03/21 14:22:21;;;;;;;9.18;5.13;;;;;;;;;;5035169;28;20035;-96
2022/03/21 14:24:46;;;;;;;8.13;4.60;;;;;;;;;;5036584;28;20031;-95
2022/03/21 14:27:12;;;;;;;10.30;4.50;;;;;;;;;;5035801;28;20017;-91
2022/03/21 14:29:37;;;;;;;8.07;4.15;;;;;;;;;;5034990;28;20068;-93
2022/03/21 14:32:02;;;;;;;12.18;4.72;;;;;;;;;;5051421;28;20104;-87
2022/03/21 14:34:28;;;;;;;13.48;5.03;;;;;;;;;;5034232;28;20037;-93
2022/03/21 14:36:54;;;;;;;8.02;4.38;;;;;;;;;;5026613;28;20111;-93
2022/03/21 14:39:19;;;;;;;7.38;4.03;;;;;;;;;;5016569;28;20493;-93
2022/03/21 14:41:44;;;;;;;8.10;4.45;;;;;;;;;;5031227;28;20025;-91
2022/03/21 14:44:10;;;;;;;9.30;3.80;;;;;;;;;;5031143;28;20014;-93
2022/03/21 14:46:35;;;;;;;11.25;5.05;;;;;;;;;;5015795;28;20401;-93
2022/03/21 14:49:00;;;;;;;8.45;4.18;;;;;;;;;;5015740;28;20053;-93
2022/03/21 14:51:25;;;;;;;8.20;4.35;;;;;;;;;;5031534;28;20029;-91
2022/03/21 14:53:51;;;;;;;9.55;4.72;;;;;;;;;;5030736;28;20521;-91